Airfield :
LOGIN :

Register | Disclaimer

   EN    FR    IT 

 










Legend :    VFR   Marginal VFR   IFR   Intensive IFR   Very Intensive IFR
Visi :
Ceiling :
>= 8 km
>= 3000ft
5 to 8 km
1000 to 3000 ft
1500m to 5 km
500 to 1000 ft
800 to 1500m
200 to 500 ft
< 800m
< 200 ft
Symbols :   Thunderstorms  Fog  Heavy snow  Heavy precipitations  Wind > 20 kt
SIGMETs :     Misc.  Thunderstorms  Icing  Turbulence  Mountain Waves  Volcanic Ashes






- Airport Elevation : 600 ft
- IATA code : VIE


LOWW - Vienna Schwechat

CURRENT METAR :
  • 182220Z 25006KT CAVOK 05/M01 Q1026 NOSIG

EXPIRED METARs :
  • 182150Z 25005KT CAVOK 05/M02 Q1026 NOSIG
  • 182120Z 25006KT CAVOK 05/M02 Q1026 NOSIG
  • 182050Z 24004KT CAVOK 06/M02 Q1026 NOSIG
  • 182020Z 23006KT CAVOK 07/M02 Q1026 NOSIG
  • 181950Z 24006KT CAVOK 07/M02 Q1026 NOSIG

TAF TAF LOWW
Valid from the 18 at 21:00 until the 20 at 03:00 UTC


182015Z 1821/2003 18006KT CAVOK TX09/1913Z TN00/1904Z
BECMG 1913/1915 28012KT 9999 FEW040 BKN100
TEMPO 1913/1919 29015G25KT -SHRA BKN040 FEW040TCU
BECMG 1919/1921 CAVOK



MET'MAP, your aeronautical weather chart ! - Copyright ORBIFLY December 2007 - Disclaimer

ORBIFLY MET'MAP TEAM :

Programming & Development : Alexandra Zaïnal
Concept & original design : Baudouin d'Aumeries
Assistance for programming : Marc-Olivier Méhu
Technical & hardware support : Manuel Goepfert

Contact : metmap@orbifly.com




SOURCES & CREDITS :

   NOAA